Time;durP1;ratioP1;P1;durP2;ratioP2;P2;SDS_P1;SDS_P2;PMS_P1;PMS_P2;Temp;Humidity;BMP_temperature;BMP_pressure;BME280_temperature;BME280_humidity;BME280_pressure;Samples;Min_cycle;Max_cycle;Signal;HPM_P1;HPM_P2
2022/04/12 00:01:08;;;;;;;7.45;5.13;;;;;;;12.87;39.89;100999.16;5087123;28;20028;-60
2022/04/12 00:03:36;;;;;;;6.88;5.22;;;;;;;12.86;40.24;100989.13;5084125;28;20039;-60
2022/04/12 00:06:01;;;;;;;6.07;5.07;;;;;;;12.86;40.30;100980.78;5087059;28;20024;-60
2022/04/12 00:08:27;;;;;;;5.70;4.93;;;;;;;12.86;40.33;100977.16;5087101;28;20039;-60
2022/04/12 00:10:53;;;;;;;6.10;4.80;;;;;;;12.85;40.18;100981.91;5081800;28;20111;-61
2022/04/12 00:13:19;;;;;;;7.13;4.75;;;;;;;12.88;40.39;100977.72;5087673;28;20024;-60
2022/04/12 00:15:48;;;;;;;5.15;4.40;;;;;;;12.87;40.23;100974.09;5091621;28;20028;-60
2022/04/12 00:20:57;;;;;;;7.38;4.30;;;;;;;12.81;40.56;100961.25;5082451;28;20052;-60
2022/04/12 00:23:23;;;;;;;10.10;4.70;;;;;;;12.83;39.85;100969.31;5071674;28;20407;-60
2022/04/12 00:25:48;;;;;;;6.57;4.25;;;;;;;12.78;40.52;100970.13;5084032;28;20115;-60
2022/04/12 00:28:15;;;;;;;7.97;4.93;;;;;;;12.74;40.52;100966.19;5090981;28;20459;-60
2022/04/12 00:30:46;;;;;;;4.72;4.18;;;;;;;12.73;40.46;100975.63;5081046;28;20427;-60
2022/04/12 00:33:12;;;;;;;4.70;4.28;;;;;;;12.71;40.37;100969.50;5090258;28;20368;-61
2022/04/12 00:35:37;;;;;;;8.00;4.90;;;;;;;12.71;40.66;100975.06;5091261;28;20028;-60
2022/04/12 00:38:13;;;;;;;7.07;4.65;;;;;;;12.70;40.84;100977.03;5091685;28;20158;-60
2022/04/12 00:40:41;;;;;;;5.43;4.38;;;;;;;12.74;40.51;100968.97;5079713;28;20047;-60
2022/04/12 00:43:06;;;;;;;6.15;4.40;;;;;;;12.72;40.56;100963.66;5074683;28;20406;-60
2022/04/12 00:45:32;;;;;;;6.97;4.45;;;;;;;12.69;40.97;100968.91;5089711;28;20024;-60
2022/04/12 00:47:57;;;;;;;11.13;4.70;;;;;;;12.69;40.82;100974.47;5091336;28;20036;-60
2022/04/12 00:50:25;;;;;;;6.50;4.00;;;;;;;12.69;41.06;100963.34;5083300;28;20028;-60
2022/04/12 00:52:55;;;;;;;7.22;4.20;;;;;;;12.65;41.03;100963.03;5091471;28;20479;-60
2022/04/12 00:55:21;;;;;;;7.38;4.43;;;;;;;12.69;41.21;100966.13;5091223;28;20482;-60
2022/04/12 00:57:47;;;;;;;6.22;4.63;;;;;;;12.55;41.40;100962.94;5089308;28;20064;-60
2022/04/12 01:00:16;;;;;;;7.45;4.45;;;;;;;12.61;40.92;100974.97;5071843;28;20376;-60
2022/04/12 01:02:41;;;;;;;6.95;4.43;;;;;;;12.53;41.15;100970.72;5083607;28;20028;-61
2022/04/12 01:05:07;;;;;;;6.95;4.30;;;;;;;12.59;41.28;100968.84;5088184;28;20085;-61
2022/04/12 01:07:37;;;;;;;5.40;4.07;;;;;;;12.58;41.45;100976.34;5091379;28;20040;-60
2022/04/12 01:10:09;;;;;;;8.02;4.65;;;;;;;12.56;41.35;100958.22;5090207;28;20402;-60
2022/04/12 01:12:40;;;;;;;7.97;4.30;;;;;;;12.59;41.12;100954.91;5091361;28;20039;-60
2022/04/12 01:15:17;;;;;;;6.50;4.17;;;;;;;12.60;41.59;100956.59;5083865;28;20032;-60
2022/04/12 01:17:44;;;;;;;7.55;4.57;;;;;;;12.49;41.67;100948.13;5086068;28;20059;-61
2022/04/12 01:20:11;;;;;;;6.63;4.20;;;;;;;12.49;41.27;100953.69;5085186;28;20024;-60
2022/04/12 01:22:46;;;;;;;4.80;4.30;;;;;;;12.49;41.73;100955.63;5089489;28;20077;-60
2022/04/12 01:25:11;;;;;;;8.20;4.90;;;;;;;12.52;41.42;100966.25;5090098;28;20109;-60
2022/04/12 01:27:37;;;;;;;8.80;4.68;;;;;;;12.46;41.77;100961.75;5079108;28;20055;-60
2022/04/12 01:30:03;;;;;;;7.55;4.38;;;;;;;12.46;41.82;100961.75;5087076;28;20032;-60
2022/04/12 01:32:28;;;;;;;10.13;4.60;;;;;;;12.45;41.79;100952.53;5071778;28;20039;-60
2022/04/12 01:34:53;;;;;;;7.20;4.57;;;;;;;12.46;41.62;100947.84;5091005;28;20115;-60
2022/04/12 01:37:21;;;;;;;7.78;4.85;;;;;;;12.41;41.66;100951.38;5078324;28;20029;-60
2022/04/12 01:39:46;;;;;;;7.95;4.75;;;;;;;12.40;41.93;100954.44;5087870;28;20463;-60
2022/04/12 01:42:14;;;;;;;7.88;4.45;;;;;;;12.41;42.06;100962.50;5077212;28;20031;-60
2022/04/12 01:44:40;;;;;;;8.13;5.05;;;;;;;12.32;41.99;100954.91;5089974;28;20032;-60
2022/04/12 01:47:05;;;;;;;9.20;5.03;;;;;;;12.33;42.34;100951.03;5091212;28;20053;-60
2022/04/12 01:49:33;;;;;;;6.90;4.63;;;;;;;12.34;41.79;100945.22;5082877;28;20017;-61
2022/04/12 01:52:05;;;;;;;7.93;4.97;;;;;;;12.37;42.17;100949.38;5086584;28;20836;-60
2022/04/12 01:54:30;;;;;;;8.35;4.32;;;;;;;12.35;42.34;100949.66;5094870;28;20542;-60
2022/04/12 01:56:56;;;;;;;7.40;4.70;;;;;;;12.27;42.38;100936.22;5082778;28;20165;-60
2022/04/12 01:59:22;;;;;;;8.50;4.45;;;;;;;12.27;42.64;100936.22;5093835;28;20382;-60
2022/04/12 02:01:50;;;;;;;5.63;4.53;;;;;;;12.29;42.18;100934.84;5090056;28;20060;-60
2022/04/12 02:04:15;;;;;;;6.50;4.38;;;;;;;12.25;42.48;100935.63;5094210;28;20470;-60
2022/04/12 02:06:41;;;;;;;7.55;4.50;;;;;;;12.29;42.30;100936.78;5093534;28;20089;-60
2022/04/12 02:09:06;;;;;;;9.00;4.70;;;;;;;12.21;42.33;100942.81;5093041;28;20463;-60
2022/04/12 02:11:31;;;;;;;6.57;4.72;;;;;;;12.16;42.66;100945.56;5086176;28;20093;-60
2022/04/12 02:13:56;;;;;;;7.75;4.90;;;;;;;12.17;42.67;100950.03;5093406;28;20464;-60
2022/04/12 02:16:23;;;;;;;9.27;4.40;;;;;;;12.14;42.49;100944.97;5093282;28;20031;-60
2022/04/12 02:18:48;;;;;;;6.88;4.60;;;;;;;12.14;42.67;100947.75;5094432;28;20024;-60
2022/04/12 02:21:13;;;;;;;7.55;4.78;;;;;;;12.14;42.98;100943.03;5093163;28;20035;-60
2022/04/12 02:23:39;;;;;;;5.68;4.38;;;;;;;12.16;42.89;100934.44;5093597;28;20089;-60
2022/04/12 02:26:04;;;;;;;7.13;4.85;;;;;;;12.08;43.31;100937.69;5083640;28;20032;-60
2022/04/12 02:28:29;;;;;;;6.85;4.50;;;;;;;12.09;43.36;100942.13;5093543;28;20032;-60
2022/04/12 02:30:55;;;;;;;7.13;4.43;;;;;;;12.07;43.09;100941.56;5091258;28;20067;-60
2022/04/12 02:33:20;;;;;;;8.75;4.70;;;;;;;11.99;43.34;100935.38;5094152;28;20028;-60
2022/04/12 02:35:45;;;;;;;8.13;4.32;;;;;;;12.00;43.14;100931.47;5091288;28;20044;-60
2022/04/12 02:38:10;;;;;;;6.15;4.40;;;;;;;12.01;43.26;100935.09;5094014;28;20073;-60
2022/04/12 02:40:36;;;;;;;8.63;4.60;;;;;;;11.98;43.40;100930.88;5093817;28;20081;-61
2022/04/12 02:43:01;;;;;;;7.22;4.55;;;;;;;11.98;43.79;100930.03;5079123;28;20082;-60
2022/04/12 02:45:26;;;;;;;5.45;4.25;;;;;;;11.96;43.53;100935.03;5093951;28;20020;-60
2022/04/12 02:47:51;;;;;;;6.63;4.30;;;;;;;11.92;43.82;100929.16;5093698;28;20225;-60
2022/04/12 02:50:17;;;;;;;7.05;4.70;;;;;;;11.90;43.51;100917.44;5092880;28;20093;-60
2022/04/12 02:52:42;;;;;;;9.98;4.85;;;;;;;11.90;43.51;100920.22;5093941;28;20467;-60
2022/04/12 02:55:07;;;;;;;8.02;4.43;;;;;;;11.86;43.87;100923.78;5090623;28;20028;-60
2022/04/12 02:57:32;;;;;;;6.22;4.45;;;;;;;11.86;44.03;100921.84;5092836;28;20044;-60
2022/04/12 02:59:58;;;;;;;11.38;5.07;;;;;;;11.87;44.58;100917.13;5086664;28;20029;-60
2022/04/12 03:02:23;;;;;;;9.30;4.80;;;;;;;11.81;44.21;100918.97;5090354;28;20453;-60
2022/04/12 03:04:48;;;;;;;8.80;5.07;;;;;;;11.77;44.33;100910.31;5093362;28;20032;-60
2022/04/12 03:07:14;;;;;;;8.63;5.18;;;;;;;11.78;44.43;100909.19;5092705;28;20043;-60
2022/04/12 03:09:40;;;;;;;7.63;5.07;;;;;;;11.76;44.62;100908.63;5091203;28;20024;-60
2022/04/12 03:12:09;;;;;;;7.78;5.22;;;;;;;11.77;44.52;100898.34;5091870;28;20020;-60
2022/04/12 03:14:34;;;;;;;7.40;5.13;;;;;;;11.75;44.89;100894.97;5093296;28;20027;-60
2022/04/12 03:17:09;;;;;;;8.32;5.28;;;;;;;11.73;44.71;100888.84;5080999;28;20033;-60
2022/04/12 03:19:34;;;;;;;7.70;5.45;;;;;;;11.62;44.84;100898.16;5073341;28;20055;-60
2022/04/12 03:21:59;;;;;;;7.55;5.50;;;;;;;11.70;44.36;100883.81;5088986;28;20063;-60
2022/04/12 03:24:25;;;;;;;9.00;5.15;;;;;;;11.72;44.47;100882.44;5092031;28;20032;-60
2022/04/12 03:26:50;;;;;;;7.70;5.03;;;;;;;11.67;44.53;100884.31;5088006;28;20024;-60
2022/04/12 03:29:16;;;;;;;7.68;5.80;;;;;;;11.64;45.04;100879.28;5091468;28;20028;-60
2022/04/12 03:31:42;;;;;;;6.60;4.93;;;;;;;11.59;44.87;100876.44;5091769;28;20039;-60
2022/04/12 03:34:07;;;;;;;9.82;5.82;;;;;;;11.61;44.78;100874.25;5093000;28;20032;-60
2022/04/12 03:36:32;;;;;;;10.32;5.40;;;;;;;11.62;44.94;100875.94;5084996;28;20028;-60
2022/04/12 03:38:58;;;;;;;7.90;5.65;;;;;;;11.61;45.15;100879.81;5091577;28;20040;-60
2022/04/12 03:41:23;;;;;;;8.57;5.00;;;;;;;11.54;45.51;100885.56;5092657;28;20032;-60
2022/04/12 03:43:50;;;;;;;9.68;5.70;;;;;;;11.51;45.33;100880.50;5083246;28;20024;-60
2022/04/12 03:46:15;;;;;;;6.88;4.88;;;;;;;11.55;45.67;100888.09;5090213;28;20035;-60
2022/04/12 03:48:40;;;;;;;7.43;5.82;;;;;;;11.51;45.67;100895.28;5080227;28;20036;-60
2022/04/12 03:51:06;;;;;;;8.35;5.80;;;;;;;11.48;45.45;100884.66;5081858;28;20474;-60
2022/04/12 03:53:36;;;;;;;7.40;5.55;;;;;;;11.47;45.54;100868.22;5091279;28;20028;-60
2022/04/12 03:56:04;;;;;;;8.00;5.07;;;;;;;11.53;45.33;100862.47;5092298;28;20115;-60
2022/04/12 03:58:29;;;;;;;8.93;5.80;;;;;;;11.51;45.54;100861.91;5091536;28;20040;-60
2022/04/12 04:00:55;;;;;;;8.43;5.30;;;;;;;11.53;45.14;100861.66;5080837;28;20044;-60
2022/04/12 04:03:20;;;;;;;7.75;5.07;;;;;;;11.58;45.24;100860.88;5092185;28;20463;-60
2022/04/12 04:05:48;;;;;;;11.00;5.72;;;;;;;11.53;45.55;100879.16;5091368;28;20528;-60
2022/04/12 04:08:14;;;;;;;7.70;5.60;;;;;;;11.53;45.35;100870.81;5080600;28;20094;-60
2022/04/12 04:10:39;;;;;;;9.75;5.15;;;;;;;11.54;45.40;100864.16;5076057;28;20016;-60
2022/04/12 04:13:08;;;;;;;8.77;5.68;;;;;;;11.47;45.74;100868.22;5091641;28;20528;-60
2022/04/12 04:15:36;;;;;;;10.43;5.43;;;;;;;11.42;45.83;100863.44;5090468;28;20570;-60
2022/04/12 04:18:02;;;;;;;10.57;5.30;;;;;;;11.48;45.52;100865.22;5079244;28;20025;-60
2022/04/12 04:20:27;;;;;;;9.10;5.32;;;;;;;11.46;45.74;100872.94;5073924;28;20498;-60
2022/04/12 04:22:52;;;;;;;10.50;5.47;;;;;;;11.47;45.70;100871.84;5091148;28;20035;-60
2022/04/12 04:25:18;;;;;;;8.45;5.70;;;;;;;11.48;45.78;100865.22;5091623;28;20031;-60
2022/04/12 04:27:44;;;;;;;7.30;5.20;;;;;;;11.41;45.84;100861.78;5091141;28;20039;-60
2022/04/12 04:30:10;;;;;;;9.18;5.70;;;;;;;11.41;45.96;100860.94;5079870;28;20146;-59
2022/04/12 04:32:36;;;;;;;8.13;5.65;;;;;;;11.39;46.00;100866.75;5091291;28;20028;-60
2022/04/12 04:35:03;;;;;;;8.68;5.38;;;;;;;11.39;46.11;100874.25;5091169;28;20463;-60
2022/04/12 04:37:28;;;;;;;9.40;5.68;;;;;;;11.39;45.93;100865.91;5072550;28;20028;-60
2022/04/12 04:39:54;;;;;;;8.63;5.40;;;;;;;11.35;46.17;100868.34;5081451;28;20540;-60
2022/04/12 04:42:20;;;;;;;17.30;5.78;;;;;;;11.32;46.19;100866.13;5090974;28;20032;-60
2022/04/12 04:44:46;;;;;;;9.27;5.82;;;;;;;11.33;46.41;100876.13;5084797;28;20063;-60
2022/04/12 04:47:12;;;;;;;9.32;5.88;;;;;;;11.27;46.60;100885.47;5090064;28;20496;-60
2022/04/12 04:49:37;;;;;;;10.80;6.20;;;;;;;11.22;46.99;100894.59;5090540;28;20047;-60
2022/04/12 04:52:03;;;;;;;15.00;6.10;;;;;;;11.19;46.85;100906.22;5091144;28;20032;-60
2022/04/12 04:54:28;;;;;;;7.28;5.63;;;;;;;11.10;47.28;100912.47;5081003;28;20123;-60
2022/04/12 04:56:53;;;;;;;9.25;6.45;;;;;;;11.10;47.47;100909.69;5090211;28;20064;-60
2022/04/12 04:59:18;;;;;;;10.70;6.47;;;;;;;11.11;47.72;100909.44;5091363;28;20532;-59
2022/04/12 05:01:44;;;;;;;9.82;5.80;;;;;;;11.08;47.42;100915.47;5087265;28;20032;-59
2022/04/12 05:04:09;;;;;;;10.35;6.20;;;;;;;11.03;47.78;100909.84;5089737;28;20573;-59
2022/04/12 05:06:34;;;;;;;8.70;5.72;;;;;;;11.01;48.00;100918.47;5089513;28;20046;-59
2022/04/12 05:09:02;;;;;;;10.60;5.85;;;;;;;11.00;48.55;100905.69;5087838;28;20078;-59
2022/04/12 05:11:27;;;;;;;9.05;5.72;;;;;;;10.98;48.55;100896.75;5089467;28;20497;-59
2022/04/12 05:13:52;;;;;;;9.65;6.28;;;;;;;10.99;48.40;100889.25;5089473;28;20067;-59
2022/04/12 05:16:17;;;;;;;9.20;5.93;;;;;;;11.04;47.93;100886.53;5089573;28;20024;-59
2022/04/12 05:18:43;;;;;;;9.75;6.20;;;;;;;11.05;47.61;100897.41;5087769;28;20036;-59
2022/04/12 05:21:08;;;;;;;10.07;6.43;;;;;;;11.08;47.83;100898.81;5089889;28;20074;-59
2022/04/12 05:23:33;;;;;;;11.70;6.28;;;;;;;11.12;48.00;100893.59;5081037;28;20039;-60
2022/04/12 05:25:59;;;;;;;7.63;6.40;;;;;;;11.12;47.95;100894.47;5087669;28;20113;-59
2022/04/12 05:28:24;;;;;;;9.23;5.80;;;;;;;11.14;47.83;100892.25;5094642;28;20028;-59
2022/04/12 05:30:50;;;;;;;16.13;6.28;;;;;;;11.18;47.59;100885.09;5080272;28;20052;-61
2022/04/12 05:33:15;;;;;;;10.10;5.50;;;;;;;11.17;47.92;100885.34;5082441;28;20042;-60
2022/04/12 05:35:41;;;;;;;10.88;6.65;;;;;;;11.18;47.68;100879.53;5092236;28;20040;-60
2022/04/12 05:38:06;;;;;;;9.52;6.10;;;;;;;11.18;47.58;100885.09;5093569;28;20028;-60
2022/04/12 05:40:32;;;;;;;11.23;7.18;;;;;;;11.15;47.64;100893.09;5094380;28;20063;-59
2022/04/12 05:42:58;;;;;;;11.65;6.50;;;;;;;11.19;47.68;100888.69;5093637;28;20027;-59
2022/04/12 05:45:23;;;;;;;9.73;6.45;;;;;;;11.19;47.84;100883.16;5092146;28;20032;-60
2022/04/12 05:47:51;;;;;;;11.00;6.43;;;;;;;11.20;47.64;100876.47;5093612;28;20039;-60
2022/04/12 05:50:19;;;;;;;13.23;6.40;;;;;;;11.24;47.57;100895.19;5093869;28;20056;-60
2022/04/12 05:52:44;;;;;;;7.97;6.40;;;;;;;11.23;47.67;100898.19;5091778;28;20762;-60
2022/04/12 05:55:12;;;;;;;10.60;6.50;;;;;;;11.28;47.66;100904.69;5092508;28;20051;-60
2022/04/12 05:57:38;;;;;;;10.32;6.35;;;;;;;11.24;47.57;100903.53;5094039;28;20044;-60
2022/04/12 06:00:06;;;;;;;10.55;6.82;;;;;;;11.21;47.52;100906.81;5094228;28;20035;-59
2022/04/12 06:02:32;;;;;;;10.30;6.47;;;;;;;11.24;47.66;100897.97;5093123;28;20032;-59
2022/04/12 06:04:58;;;;;;;8.85;5.97;;;;;;;11.24;47.84;100888.78;5085237;28;20105;-63
2022/04/12 06:07:29;;;;;;;11.32;6.55;;;;;;;11.26;47.63;100906.03;5092591;28;20070;-60
2022/04/12 06:09:59;;;;;;;11.38;6.65;;;;;;;11.29;47.76;100902.75;5092607;28;20024;-59
2022/04/12 06:12:24;;;;;;;9.15;6.70;;;;;;;11.27;47.75;100896.59;5090486;28;20039;-59
2022/04/12 06:14:49;;;;;;;11.63;6.50;;;;;;;11.31;47.66;100894.97;5094987;28;20024;-59
2022/04/12 06:17:15;;;;;;;9.73;7.03;;;;;;;11.37;47.65;100893.13;5091470;28;20028;-58
2022/04/12 06:19:40;;;;;;;9.55;6.90;;;;;;;11.45;47.85;100899.06;5089446;28;20462;-58
2022/04/12 06:22:05;;;;;;;10.57;6.57;;;;;;;11.50;47.74;100901.91;5093482;28;20085;-58
2022/04/12 06:24:30;;;;;;;9.60;6.85;;;;;;;11.54;48.04;100902.22;5088696;28;20035;-58
2022/04/12 06:26:55;;;;;;;15.18;7.07;;;;;;;11.63;48.20;100908.19;5090854;28;20517;-58
2022/04/12 06:29:21;;;;;;;12.13;6.75;;;;;;;11.68;47.55;100908.25;5093341;28;20081;-58
2022/04/12 06:31:46;;;;;;;11.43;6.88;;;;;;;11.77;47.33;100909.47;5087962;28;20039;-58
2022/04/12 06:34:11;;;;;;;12.35;6.28;;;;;;;11.83;47.46;100899.25;5089497;28;20021;-58
2022/04/12 06:36:37;;;;;;;12.13;6.70;;;;;;;11.83;47.25;100905.69;5088956;28;20060;-58
2022/04/12 06:39:02;;;;;;;11.45;7.35;;;;;;;11.88;47.32;100908.53;5091017;28;20032;-58
2022/04/12 06:41:27;;;;;;;8.25;7.00;;;;;;;11.91;47.19;100910.81;5087289;28;20103;-58
2022/04/12 06:43:55;;;;;;;12.20;7.40;;;;;;;11.93;47.30;100914.16;5092262;28;20443;-59
2022/04/12 06:46:20;;;;;;;11.27;7.05;;;;;;;11.99;46.88;100910.34;5091639;28;20119;-59
2022/04/12 06:48:46;;;;;;;12.43;6.85;;;;;;;12.04;47.06;100901.19;5085923;28;20135;-59
2022/04/12 06:51:11;;;;;;;12.15;6.72;;;;;;;12.08;47.10;100896.78;5090525;28;20028;-58
2022/04/12 06:53:36;;;;;;;8.02;6.65;;;;;;;12.12;46.79;100885.97;5091288;28;20115;-59
2022/04/12 06:56:02;;;;;;;10.13;6.72;;;;;;;12.18;47.07;100888.56;5088268;28;20044;-58
2022/04/12 06:58:27;;;;;;;9.70;6.70;;;;;;;12.23;47.12;100894.16;5089263;28;20134;-59
2022/04/12 07:00:52;;;;;;;11.43;6.43;;;;;;;12.34;46.95;100900.69;5081499;28;20040;-60
2022/04/12 07:03:17;;;;;;;7.90;3.10;;;;;;;12.92;53.92;100887.75;5085901;28;20047;-60
2022/04/12 07:05:43;;;;;;;7.80;3.13;;;;;;;13.41;53.85;100881.13;5088372;28;20028;-60
2022/04/12 07:08:11;;;;;;;7.65;2.90;;;;;;;13.96;52.08;100885.25;5089633;28;20077;-60
2022/04/12 07:10:36;;;;;;;6.20;3.33;;;;;;;14.36;50.03;100881.69;5082718;28;20044;-60
2022/04/12 07:13:01;;;;;;;8.43;3.92;;;;;;;14.69;48.27;100876.69;5089433;28;20515;-60
2022/04/12 07:15:27;;;;;;;6.18;4.13;;;;;;;15.05;47.50;100877.50;5089328;28;20039;-61
2022/04/12 07:17:52;;;;;;;10.18;4.45;;;;;;;15.19;45.50;100883.34;5091569;28;20036;-62
2022/04/12 07:20:17;;;;;;;6.55;4.35;;;;;;;15.32;43.84;100888.31;5079388;28;20039;-64
2022/04/12 07:22:42;;;;;;;8.30;4.60;;;;;;;15.34;43.76;100896.44;5089771;28;20064;-62
2022/04/12 07:25:09;;;;;;;5.57;4.25;;;;;;;15.56;43.44;100896.94;5091538;28;20336;-61
2022/04/12 07:27:36;;;;;;;8.05;4.75;;;;;;;15.53;43.18;100886.31;5090021;28;20036;-61
2022/04/12 07:30:06;;;;;;;7.95;4.13;;;;;;;15.75;43.02;100877.56;5091960;28;20020;-62
2022/04/12 07:32:32;;;;;;;7.40;4.00;;;;;;;15.81;42.57;100876.44;5091334;28;20032;-62
2022/04/12 07:34:57;;;;;;;8.82;4.43;;;;;;;16.00;41.93;100878.56;5090821;28;20024;-62
2022/04/12 07:37:22;;;;;;;6.40;4.35;;;;;;;15.95;41.23;100885.00;5089071;28;20044;-61
2022/04/12 07:39:48;;;;;;;5.22;4.05;;;;;;;16.09;41.67;100882.44;5093191;28;20094;-60
2022/04/12 07:42:14;;;;;;;8.23;4.32;;;;;;;16.08;41.21;100884.41;5088094;28;20032;-60
2022/04/12 07:44:39;;;;;;;7.07;5.15;;;;;;;15.88;40.25;100882.56;5095709;28;20032;-60
2022/04/12 07:47:05;;;;;;;9.48;4.05;;;;;;;16.03;40.36;100877.97;5087105;28;20464;-61
2022/04/12 07:49:30;;;;;;;8.07;3.63;;;;;;;16.21;41.37;100888.50;5078654;28;20105;-61
2022/04/12 07:51:55;;;;;;;7.47;4.00;;;;;;;16.29;41.23;100881.47;5083176;28;20055;-61
2022/04/12 07:54:20;;;;;;;6.00;3.55;;;;;;;16.41;40.92;100879.97;5083708;28;20039;-61
2022/04/12 07:56:46;;;;;;;7.25;4.50;;;;;;;16.30;40.04;100880.31;5083982;28;20581;-61
2022/04/12 07:59:11;;;;;;;6.20;3.55;;;;;;;16.47;41.33;100891.16;5083751;28;20036;-61
2022/04/12 08:01:37;;;;;;;8.85;4.15;;;;;;;16.40;39.92;100886.69;5081152;28;20071;-61
2022/04/12 08:04:02;;;;;;;4.88;3.22;;;;;;;16.83;41.21;100886.94;5088261;28;20039;-62
2022/04/12 08:06:28;;;;;;;11.45;3.67;;;;;;;16.98;40.88;100885.09;5087879;28;20032;-61
2022/04/12 08:08:53;;;;;;;5.45;2.90;;;;;;;17.04;41.09;100895.16;5086021;28;20490;-60
2022/04/12 08:11:18;;;;;;;5.85;2.70;;;;;;;17.02;41.00;100891.81;5085023;28;20078;-61
2022/04/12 08:13:45;;;;;;;9.50;3.50;;;;;;;16.98;40.14;100887.91;5086898;28;20040;-61
2022/04/12 08:16:11;;;;;;;7.18;3.63;;;;;;;16.83;39.61;100892.53;5088389;28;20544;-61
2022/04/12 08:18:36;;;;;;;6.70;3.40;;;;;;;16.99;40.10;100896.03;5086310;28;20020;-62
2022/04/12 08:21:02;;;;;;;5.65;3.05;;;;;;;17.12;40.00;100888.91;5088115;28;20032;-62
2022/04/12 08:23:27;;;;;;;12.40;2.83;;;;;;;17.25;39.65;100884.53;5088256;28;20463;-62
2022/04/12 08:25:53;;;;;;;8.20;4.03;;;;;;;17.06;39.17;100893.72;5079623;28;20093;-62
2022/04/12 08:28:19;;;;;;;6.15;3.20;;;;;;;17.21;40.11;100884.31;5092486;28;20432;-61
2022/04/12 08:30:44;;;;;;;7.60;3.97;;;;;;;16.98;39.27;100890.72;5088230;28;20058;-62
2022/04/12 08:33:10;;;;;;;6.78;4.03;;;;;;;17.11;39.33;100898.44;5086515;28;20039;-61
2022/04/12 08:35:35;;;;;;;6.05;3.88;;;;;;;17.13;39.51;100893.38;5087274;28;20031;-62
2022/04/12 08:38:00;;;;;;;7.80;3.38;;;;;;;17.28;39.38;100889.56;5085049;28;20036;-61
2022/04/12 08:40:26;;;;;;;7.20;3.85;;;;;;;17.19;39.34;100875.38;5083292;28;20048;-58
2022/04/12 08:42:53;;;;;;;6.40;3.50;;;;;;;17.36;39.87;100870.09;5084124;28;20051;-60
2022/04/12 08:45:18;;;;;;;6.22;3.17;;;;;;;17.43;39.18;100870.59;5079189;28;20039;-62
2022/04/12 08:47:43;;;;;;;6.03;2.85;;;;;;;17.43;39.62;100859.38;5082256;28;20020;-61
2022/04/12 08:50:10;;;;;;;6.30;3.08;;;;;;;17.46;39.63;100859.91;5088214;28;20032;-61
2022/04/12 08:52:36;;;;;;;8.45;2.75;;;;;;;17.60;39.46;100858.03;5091883;28;20024;-61
2022/04/12 08:55:03;;;;;;;6.45;3.20;;;;;;;17.64;38.98;100848.75;5089989;28;20046;-61
2022/04/12 08:57:29;;;;;;;5.03;2.70;;;;;;;17.78;38.94;100842.41;5085543;28;20036;-61
2022/04/12 08:59:57;;;;;;;3.83;2.58;;;;;;;17.57;38.33;100844.63;5086755;28;20027;-61
2022/04/12 09:02:23;;;;;;;6.82;3.08;;;;;;;17.52;38.33;100841.88;5086433;28;20036;-61
2022/04/12 09:04:49;;;;;;;4.38;2.60;;;;;;;17.61;38.82;100854.13;5086842;28;20036;-61
2022/04/12 09:07:14;;;;;;;5.72;2.40;;;;;;;17.54;38.72;100851.66;5087575;28;20464;-61
2022/04/12 09:09:42;;;;;;;6.22;2.95;;;;;;;17.58;38.82;100860.31;5088628;28;20027;-60
2022/04/12 09:12:13;;;;;;;6.53;2.88;;;;;;;17.69;38.54;100850.66;5089891;28;20028;-60
2022/04/12 09:14:46;;;;;;;5.50;2.92;;;;;;;17.62;38.60;100841.75;5087242;28;20028;-60
2022/04/12 09:17:19;;;;;;;4.13;2.45;;;;;;;17.67;38.84;100836.88;5085443;28;20047;-61
2022/04/12 09:19:50;;;;;;;4.85;2.67;;;;;;;17.90;38.67;100828.75;5081983;28;20479;-61
2022/04/12 09:22:21;;;;;;;7.78;2.55;;;;;;;18.05;38.35;100820.13;5087020;28;20032;-61
2022/04/12 09:24:48;;;;;;;5.60;2.80;;;;;;;18.00;38.30;100813.72;5090328;28;20039;-60
2022/04/12 09:27:15;;;;;;;6.22;2.80;;;;;;;18.04;38.41;100815.63;5089667;28;20556;-61
2022/04/12 09:30:01;;;;;;;5.13;2.40;;;;;;;18.11;38.91;100818.03;5087323;28;20407;-61
2022/04/12 09:32:28;;;;;;;4.57;2.70;;;;;;;18.22;38.26;100810.28;5086823;28;20048;-61
2022/04/12 09:34:55;;;;;;;6.47;2.78;;;;;;;18.26;38.49;100817.81;5085980;28;20115;-61
2022/04/12 09:37:25;;;;;;;6.13;2.75;;;;;;;18.18;37.40;100812.06;5082806;28;20475;-61
2022/04/12 09:39:55;;;;;;;4.65;2.70;;;;;;;18.21;38.42;100817.06;5079087;28;20067;-61
2022/04/12 09:42:40;;;;;;;4.55;2.80;;;;;;;18.14;38.67;100823.06;5090462;28;20387;-61
2022/04/12 09:45:08;;;;;;;4.82;2.72;;;;;;;18.26;38.70;100828.22;5078818;28;20028;-61
2022/04/12 09:47:33;;;;;;;7.55;3.13;;;;;;;18.21;38.60;100814.25;5087966;28;20036;-61
2022/04/12 09:50:02;;;;;;;7.35;3.25;;;;;;;18.19;38.18;100830.56;5084877;28;20020;-61
2022/04/12 09:52:28;;;;;;;6.72;2.78;;;;;;;18.22;38.13;100819.56;5088163;28;20039;-61
2022/04/12 09:54:57;;;;;;;8.25;3.30;;;;;;;18.15;38.66;100824.72;5089040;28;20081;-60
2022/04/12 09:57:24;;;;;;;7.55;2.97;;;;;;;18.20;38.90;100824.66;5088033;28;20105;-61
2022/04/12 09:59:55;;;;;;;8.13;3.00;;;;;;;18.20;38.29;100826.63;5082006;28;20056;-61
2022/04/12 10:02:22;;;;;;;5.20;2.50;;;;;;;18.26;38.73;100828.22;5082675;28;20024;-61
2022/04/12 10:04:52;;;;;;;5.30;2.55;;;;;;;18.28;39.33;100823.13;5087831;28;20462;-61
2022/04/12 10:07:22;;;;;;;4.80;2.90;;;;;;;18.20;39.01;100821.03;5083170;28;20028;-61
2022/04/12 10:09:49;;;;;;;45.97;30.90;;;;;;;18.37;40.61;100801.63;5088917;28;20032;-60
2022/04/12 10:12:15;;;;;;;62.40;36.10;;;;;;;18.47;40.99;100797.78;5085645;28;20028;-60
2022/04/12 10:14:42;;;;;;;21.88;11.68;;;;;;;18.55;39.67;100794.28;5089097;28;20110;-60
2022/04/12 10:17:08;;;;;;;37.28;21.55;;;;;;;18.70;40.57;100782.78;5091437;28;20027;-61
2022/04/12 10:19:34;;;;;;;18.33;11.02;;;;;;;18.64;39.56;100787.66;5089774;28;20491;-59
2022/04/12 10:22:00;;;;;;;16.20;8.00;;;;;;;18.74;39.22;100783.84;5091630;28;20232;-59
2022/04/12 10:24:27;;;;;;;12.93;7.50;;;;;;;18.82;39.04;100782.28;5086963;28;20163;-59
2022/04/12 10:26:54;;;;;;;15.43;6.53;;;;;;;18.78;39.03;100786.88;5088947;28;20023;-61
2022/04/12 10:29:20;;;;;;;17.85;8.07;;;;;;;18.93;39.16;100783.75;5084468;28;20475;-61
2022/04/12 10:31:56;;;;;;;5.47;3.47;;;;;;;18.88;39.03;100772.63;5080765;28;20035;-62
2022/04/12 10:34:27;;;;;;;8.65;5.75;;;;;;;19.01;39.43;100771.78;5091699;28;20391;-61
2022/04/12 10:37:08;;;;;;;7.88;3.20;;;;;;;18.93;39.29;100768.88;5090390;28;20059;-61
2022/04/12 10:39:44;;;;;;;5.35;3.25;;;;;;;18.89;38.16;100771.47;5088618;28;20571;-61
2022/04/12 10:42:14;;;;;;;7.55;3.67;;;;;;;18.95;38.59;100767.41;5088054;28;20118;-61
2022/04/12 10:44:45;;;;;;;5.40;3.67;;;;;;;19.01;38.74;100768.97;5087156;28;20195;-61
2022/04/12 10:47:33;;;;;;;4.55;3.20;;;;;;;19.02;39.15;100772.63;5088611;28;20028;-60
2022/04/12 10:50:01;;;;;;;7.07;3.30;;;;;;;19.02;38.88;100770.66;5083209;28;20024;-61
2022/04/12 10:52:41;;;;;;;7.30;3.50;;;;;;;19.07;38.44;100762.09;5089000;28;20040;-60
2022/04/12 10:55:31;;;;;;;5.45;2.92;;;;;;;18.95;38.28;100756.16;5088404;28;20047;-62
2022/04/12 10:58:13;;;;;;;4.15;3.08;;;;;;;19.01;38.90;100749.28;5073461;28;20550;-62
2022/04/12 11:00:41;;;;;;;5.80;2.97;;;;;;;19.06;38.35;100742.72;5083125;28;20043;-63
2022/04/12 11:03:07;;;;;;;4.80;2.75;;;;;;;19.00;38.30;100750.44;5087760;28;20040;-61
2022/04/12 11:05:45;;;;;;;6.07;2.90;;;;;;;19.10;38.35;100743.78;5089752;28;20052;-62
2022/04/12 11:08:16;;;;;;;6.75;2.97;;;;;;;19.10;37.95;100761.50;5088940;28;20524;-62
2022/04/12 11:11:04;;;;;;;6.82;2.90;;;;;;;19.10;38.62;100752.22;5086336;28;20406;-62
2022/04/12 11:13:34;;;;;;;4.13;2.83;;;;;;;19.22;38.08;100766.59;5078500;28;20111;-61
2022/04/12 11:16:03;;;;;;;4.97;2.85;;;;;;;19.34;38.02;100766.06;5077992;28;20062;-61
2022/04/12 11:18:57;;;;;;;5.18;2.90;;;;;;;19.28;38.04;100776.56;5086617;28;20092;-62
2022/04/12 11:21:50;;;;;;;6.65;3.08;;;;;;;19.20;37.68;100760.44;5085246;28;20054;-61
2022/04/12 11:24:19;;;;;;;6.40;2.78;;;;;;;19.14;37.60;100761.69;5087685;28;20040;-62
2022/04/12 11:26:50;;;;;;;5.30;2.70;;;;;;;19.23;38.01;100748.56;5085973;28;20395;-61